Flight Track Log - Related Links

Times and Time Zones

All times are in EST time to prevent confusion due to time zone crossing. See the N6711L flight status page for this flight to view local times or setup timezone preferences in your user account.

Time Position Orientation Groundspeed Altitude Reporting Facility
EST Latitude Longitude Course Direction KTS MPH feet Rate Location/Type
Tue 11:55:40 AM 25.3653 -80.2922 338° Northwest 142 163 2,000  Level Miami Center
Tue 11:56:42 AM 25.4003 -80.3139 331° Northwest 135 155 3,200 585 Climbing Miami Center
Tue 11:57:43 AM 25.4394 -80.3381 331° Northwest 187 215 3,200 49 Level Miami Center
Tue 11:58:44 AM 25.4847 -80.3644 332° Northwest 178 205 3,300 667 Climbing Miami Center
Tue 11:59:40 AM 25.5197 -80.3839 333° Northwest 150 173 4,500 1,231 Climbing Miami Center
Tue 12:00:41 PM 25.5611 -80.4058 334° Northwest 156 180 5,700 1,209 Climbing Miami Center
Tue 12:01:54 PM 25.6086 -80.4233 342° North 152 175 7,200 1,116 Climbing Miami Center
Tue 12:02:50 PM 25.6461 -80.4292 352° North 150 173 8,100 513 Climbing Miami Center
Tue 12:03:51 PM 25.6961 -80.4353 354° North 176 203 8,200 49 Climbing Miami Center
Tue 12:04:52 PM 25.7461 -80.4436 351° North 177 204 8,200  Level Miami Center
Tue 12:05:53 PM 25.7961 -80.4522 351° North 183 211 8,200  Level Miami Center
Tue 12:06:55 PM 25.8481 -80.4583 354° North 180 207 8,200  Level Miami Center
Tue 12:07:56 PM 25.8981 -80.4644 354° North 177 204 8,200  Level Miami Center
Tue 12:08:58 PM 25.9411 -80.4981 325° Northwest 174 200 8,200  Level Miami Center
Tue 12:09:59 PM 25.9758 -80.5336 317° Northwest 176 203 8,200  Level Miami Center
Tue 12:10:54 PM 26.0103 -80.5672 319° Northwest 175 201 8,200  Level Miami Center
Tue 12:11:55 PM 26.0492 -80.6008 322° Northwest 176 203 8,200  Level Miami Center
Tue 12:13:45 PM 26.1144 -80.6675 317° Northwest 176 203 8,200  Level Miami Center
Tue 12:14:45 PM 26.1511 -80.7011 321° Northwest 192 221 8,200  Level Miami Center
Tue 12:15:45 PM 26.1875 -80.7392 317° Northwest 192 221 8,200  Level Miami Center
Tue 12:16:45 PM 26.2242 -80.7753 319° Northwest 186 214 8,200  Level Miami Center
Tue 12:17:45 PM 26.2567 -80.8111 315° West 181 208 8,200  Level Miami Center
Tue 12:18:45 PM 26.2614 -80.8667 275° West 156 180 8,200  Level Miami Center
Tue 12:19:45 PM 26.2622 -80.9131 271° West 167 192 8,200  Level Miami Center
Tue 12:20:45 PM 26.2606 -80.9733 268° West 177 204 8,200  Level Miami Center
Tue 12:21:45 PM 26.2572 -81.0194 265° West 177 204 8,200  Level Miami Center
Tue 12:22:45 PM 26.2597 -81.0775 273° West 177 204 8,200 -550 Level Miami Center
Tue 12:23:45 PM 26.2497 -81.1303 258° West 177 204 7,100 -950 Descending Miami Center
Tue 12:24:45 PM 26.2256 -81.1758 239° Southwest 177 204 6,300 -950 Descending Miami Center
Tue 12:25:45 PM 26.2117 -81.2217 251° West 172 198 5,200 -1,000 Descending Miami Center
Tue 12:26:45 PM 26.2081 -81.2678 265° West 167 192 4,300 -550 Descending Miami Center
Tue 12:27:45 PM 26.2047 -81.3139 265° West 157 181 4,100 -300 Descending Miami Center
Tue 12:28:45 PM 26.2008 -81.3669 265° West 157 181 3,700 -350 Descending Miami Center
Tue 12:29:45 PM 26.2036 -81.4158 274° West 162 186 3,400 -300 Descending Miami Center
Tue 12:30:45 PM 26.2103 -81.4717 278° West 168 193 3,100 -150 Descending Miami Center
Tue 12:31:45 PM 26.2169 -81.5228 278° West 168 193 3,100 -100 Level Miami Center
Tue 12:32:45 PM 26.2194 -81.5714 273° West 168 193 2,900 -400 Descending Miami Center
Tue 12:33:45 PM 26.2217 -81.6317 272° West 173 199 2,300 -600 Descending Miami Center
Tue 12:35:00 PM 26.1940 -81.6838 239° Southwest  Level FlightAware Approximate
Tue 12:42:00 PM 26.1500 -81.7667 261° West  Level FlightAware Approximate
Tue 12:43:00 PM 26.1524 -81.7756 261° West  Level Estimated
Tue 12:44:00 PM 26.1524 -81.7756 261° West  Level Estimated

Login

Don't have an account? Register now (free) for customized features, flight alerts, and more!